createdAt,value
2018-05-03T00:00:25.664Z,12.79
2018-05-03T00:01:25.665Z,12.67
2018-05-03T00:02:25.643Z,12.70
2018-05-03T00:03:25.638Z,12.87
2018-05-03T00:04:25.663Z,12.70
2018-05-03T00:05:25.619Z,12.79
2018-05-03T00:06:25.615Z,12.78
2018-05-03T00:07:25.603Z,12.64
2018-05-03T00:08:25.599Z,12.55
2018-05-03T00:09:25.601Z,12.47
2018-05-03T00:10:25.579Z,12.29
2018-05-03T00:11:25.571Z,12.17
2018-05-03T00:12:25.563Z,12.13
2018-05-03T00:13:25.554Z,12.06
2018-05-03T00:14:25.545Z,11.97
2018-05-03T00:15:25.538Z,11.81
2018-05-03T00:16:25.529Z,11.70
2018-05-03T00:17:25.520Z,11.59
2018-05-03T00:18:25.598Z,11.60
2018-05-03T00:19:25.504Z,11.48
2018-05-03T00:20:25.496Z,11.52
2018-05-03T00:21:25.493Z,11.50
2018-05-03T00:22:25.478Z,11.50
2018-05-03T00:23:25.471Z,11.44
2018-05-03T00:24:25.461Z,11.33
2018-05-03T00:25:25.453Z,11.44
2018-05-03T00:26:25.444Z,11.41
2018-05-03T00:27:25.436Z,11.40
2018-05-03T00:28:25.431Z,11.37
2018-05-03T00:29:25.422Z,11.30
2018-05-03T00:30:25.411Z,11.29
2018-05-03T00:31:25.402Z,11.18
2018-05-03T00:32:25.394Z,11.22
2018-05-03T00:33:25.385Z,11.25
2018-05-03T00:34:25.376Z,11.30
2018-05-03T00:35:25.367Z,11.32
2018-05-03T00:36:25.363Z,11.30
2018-05-03T00:37:25.350Z,11.18
2018-05-03T00:38:25.341Z,11.29
2018-05-03T00:39:25.347Z,11.19
2018-05-03T00:40:25.325Z,11.19
2018-05-03T00:41:25.317Z,11.22
2018-05-03T00:42:25.311Z,11.30
2018-05-03T00:43:25.300Z,11.44
2018-05-03T00:44:25.291Z,11.41
2018-05-03T00:45:25.282Z,11.40
2018-05-03T00:46:25.274Z,11.36
2018-05-03T00:47:25.266Z,11.36
2018-05-03T00:48:25.258Z,11.36
2018-05-03T00:49:25.251Z,11.36
2018-05-03T00:50:25.240Z,11.36
2018-05-03T00:51:25.232Z,11.48
2018-05-03T00:52:25.224Z,11.48
2018-05-03T00:53:25.215Z,11.45
2018-05-03T00:54:25.206Z,11.37
2018-05-03T00:55:25.198Z,11.37
2018-05-03T00:56:25.191Z,11.25
2018-05-03T00:57:25.181Z,11.19
2018-05-03T00:58:25.249Z,11.25
2018-05-03T00:59:25.165Z,11.29
2018-05-03T01:00:25.161Z,11.25
2018-05-03T01:01:25.151Z,11.18
2018-05-03T01:02:25.139Z,11.23
2018-05-03T01:03:25.131Z,11.26
2018-05-03T01:04:25.123Z,11.19
2018-05-03T01:05:25.115Z,11.30
2018-05-03T01:06:25.106Z,11.19
2018-05-03T01:07:25.098Z,11.36
2018-05-03T01:08:25.093Z,11.36
2018-05-03T01:09:25.083Z,11.40
2018-05-03T01:10:25.072Z,11.35
2018-05-03T01:11:25.064Z,11.36
2018-05-03T01:12:25.056Z,11.40
2018-05-03T01:13:25.047Z,11.37
2018-05-03T01:14:25.043Z,11.43
2018-05-03T01:15:25.031Z,11.32
2018-05-03T01:16:25.023Z,11.35
2018-05-03T01:17:25.014Z,11.33
2018-05-03T01:18:25.006Z,11.23
2018-05-03T01:19:25.074Z,11.33
2018-05-03T01:20:24.988Z,11.40
2018-05-03T01:21:24.981Z,11.40
2018-05-03T01:22:24.972Z,11.44
2018-05-03T01:23:24.964Z,11.41
2018-05-03T01:24:24.959Z,11.41
2018-05-03T01:25:24.947Z,11.36
2018-05-03T01:26:24.939Z,11.44
2018-05-03T01:27:24.930Z,11.37
2018-05-03T01:28:24.927Z,11.41
2018-05-03T01:29:24.914Z,11.40
2018-05-03T01:30:24.906Z,11.52
2018-05-03T01:31:24.898Z,11.52
2018-05-03T01:32:24.892Z,11.47
2018-05-03T01:33:24.881Z,11.48
2018-05-03T01:34:24.873Z,11.54
2018-05-03T01:35:24.865Z,11.59
2018-05-03T01:36:24.858Z,11.59
2018-05-03T01:37:24.853Z,11.50
2018-05-03T01:38:24.840Z,11.51
2018-05-03T01:39:24.835Z,11.52
2018-05-03T01:40:24.830Z,11.55
2018-05-03T01:41:24.816Z,11.54
2018-05-03T01:42:24.810Z,11.57
2018-05-03T01:43:24.805Z,11.57
2018-05-03T01:44:24.805Z,11.66
2018-05-03T01:45:24.783Z,11.68
2018-05-03T01:46:24.775Z,11.62
2018-05-03T01:47:24.768Z,11.63
2018-05-03T01:48:24.760Z,11.68
2018-05-03T01:49:24.750Z,11.68
2018-05-03T01:50:24.742Z,11.72
2018-05-03T01:51:24.739Z,11.65
2018-05-03T01:52:24.726Z,11.72
2018-05-03T01:53:24.718Z,11.70
2018-05-03T01:54:24.769Z,11.81
2018-05-03T01:55:24.702Z,11.81
2018-05-03T01:56:24.694Z,11.75
2018-05-03T01:57:24.685Z,11.81
2018-05-03T01:58:24.677Z,11.77
2018-05-03T01:59:24.669Z,11.77
2018-05-03T02:00:24.661Z,11.73
2018-05-03T02:01:24.652Z,11.73
2018-05-03T02:02:24.644Z,11.75
2018-05-03T02:03:24.636Z,11.81
2018-05-03T02:04:24.628Z,11.73
2018-05-03T02:05:24.619Z,11.75
2018-05-03T02:06:24.610Z,11.73
2018-05-03T02:07:24.603Z,11.78
2018-05-03T02:08:24.600Z,11.83
2018-05-03T02:09:24.586Z,11.77
2018-05-03T02:10:24.577Z,11.81
2018-05-03T02:11:24.569Z,11.77
2018-05-03T02:12:24.562Z,11.77
2018-05-03T02:13:24.558Z,11.81
2018-05-03T02:14:24.545Z,11.83
2018-05-03T02:15:24.536Z,11.77
2018-05-03T02:16:24.528Z,11.73
2018-05-03T02:17:24.519Z,11.84
2018-05-03T02:18:24.510Z,11.87
2018-05-03T02:19:24.503Z,11.81
2018-05-03T02:20:24.495Z,11.77
2018-05-03T02:21:24.486Z,11.75
2018-05-03T02:22:24.477Z,11.78
2018-05-03T02:23:24.470Z,11.77
2018-05-03T02:24:24.461Z,11.75
2018-05-03T02:25:24.452Z,11.65
2018-05-03T02:26:24.445Z,11.62
2018-05-03T02:27:24.436Z,11.66
2018-05-03T02:28:24.428Z,11.66
2018-05-03T02:29:24.419Z,11.68
2018-05-03T02:30:24.410Z,11.62
2018-05-03T02:31:24.402Z,11.52
2018-05-03T02:32:24.395Z,11.59
2018-05-03T02:33:24.387Z,11.54
2018-05-03T02:34:24.383Z,11.65
2018-05-03T02:35:24.369Z,11.62
2018-05-03T02:36:24.361Z,11.57
2018-05-03T02:37:24.356Z,11.59
2018-05-03T02:38:24.343Z,11.57
2018-05-03T02:39:24.336Z,11.47
2018-05-03T02:40:24.327Z,11.55
2018-05-03T02:41:24.318Z,11.57
2018-05-03T02:42:24.310Z,11.45
2018-05-03T02:43:24.300Z,11.52
2018-05-03T02:44:24.297Z,11.37
2018-05-03T02:45:24.285Z,11.37
2018-05-03T02:46:24.279Z,11.52
2018-05-03T02:47:24.266Z,11.36
2018-05-03T02:48:24.257Z,11.43
2018-05-03T02:49:24.250Z,11.40
2018-05-03T02:50:24.240Z,11.36
2018-05-03T02:51:24.231Z,11.37
2018-05-03T02:52:24.224Z,11.40
2018-05-03T02:53:24.213Z,11.40
2018-05-03T02:54:24.205Z,11.40
2018-05-03T02:55:24.196Z,11.44
2018-05-03T02:56:24.191Z,11.41
2018-05-03T02:57:24.178Z,11.41
2018-05-03T02:58:24.169Z,11.32
2018-05-03T02:59:24.162Z,11.33
2018-05-03T03:00:24.154Z,11.40
2018-05-03T03:01:24.144Z,11.41
2018-05-03T03:02:24.142Z,11.27
2018-05-03T03:03:24.127Z,11.25
2018-05-03T03:04:24.119Z,11.22
2018-05-03T03:05:24.113Z,11.29
2018-05-03T03:06:24.101Z,11.23
2018-05-03T03:07:24.093Z,11.17
2018-05-03T03:08:24.084Z,11.19
2018-05-03T03:09:24.075Z,11.19
2018-05-03T03:10:24.066Z,11.17
2018-05-03T03:11:24.058Z,11.17
2018-05-03T03:12:24.049Z,11.14
2018-05-03T03:13:24.040Z,11.19
2018-05-03T03:14:24.031Z,11.29
2018-05-03T03:15:24.023Z,11.22
2018-05-03T03:16:24.015Z,11.29
2018-05-03T03:17:24.004Z,11.19
2018-05-03T03:18:23.996Z,11.15
2018-05-03T03:19:23.988Z,11.15
2018-05-03T03:20:23.979Z,11.12
2018-05-03T03:21:23.969Z,11.05
2018-05-03T03:22:23.961Z,11.08
2018-05-03T03:23:23.952Z,11.07
2018-05-03T03:24:23.944Z,10.97
2018-05-03T03:25:23.934Z,10.99
2018-05-03T03:26:23.926Z,10.84
2018-05-03T03:27:23.917Z,10.90
2018-05-03T03:28:23.908Z,10.82
2018-05-03T03:29:23.901Z,10.75
2018-05-03T03:30:23.891Z,10.71
2018-05-03T03:31:23.882Z,10.72
2018-05-03T03:32:23.876Z,10.63
2018-05-03T03:33:23.863Z,10.56
2018-05-03T03:34:23.854Z,10.71
2018-05-03T03:35:23.846Z,10.68
2018-05-03T03:36:23.837Z,10.59
2018-05-03T03:37:23.833Z,10.68
2018-05-03T03:38:23.818Z,10.72
2018-05-03T03:39:23.809Z,10.68
2018-05-03T03:40:23.801Z,10.59
2018-05-03T03:41:23.791Z,10.67
2018-05-03T03:42:23.782Z,10.68
2018-05-03T03:43:23.773Z,10.68
2018-05-03T03:44:23.769Z,10.63
2018-05-03T03:45:23.754Z,10.69
2018-05-03T03:46:23.745Z,10.54
2018-05-03T03:47:23.737Z,10.69
2018-05-03T03:48:23.728Z,10.57
2018-05-03T03:49:23.718Z,10.57
2018-05-03T03:50:23.711Z,10.59
2018-05-03T03:51:23.701Z,10.60
2018-05-03T03:52:23.692Z,10.59
2018-05-03T03:53:23.682Z,10.56
2018-05-03T03:54:23.676Z,10.56
2018-05-03T03:55:23.665Z,10.53
2018-05-03T03:56:23.655Z,10.57
2018-05-03T03:57:23.646Z,10.54
2018-05-03T03:58:23.637Z,10.53
2018-05-03T03:59:23.632Z,10.54
2018-05-03T04:00:23.619Z,10.54
2018-05-03T04:01:23.612Z,10.41
2018-05-03T04:02:23.601Z,10.46
2018-05-03T04:03:23.591Z,10.41
2018-05-03T04:04:23.583Z,10.41
2018-05-03T04:05:23.579Z,10.33
2018-05-03T04:06:23.563Z,10.28
2018-05-03T04:07:23.558Z,10.23
2018-05-03T04:08:23.546Z,10.17
2018-05-03T04:09:23.535Z,10.20
2018-05-03T04:10:23.527Z,10.20
2018-05-03T04:11:23.517Z,10.12
2018-05-03T04:12:23.517Z,10.10
2018-05-03T04:13:23.502Z,10.12
2018-05-03T04:14:23.495Z,10.09
2018-05-03T04:15:23.480Z,10.07
2018-05-03T04:16:23.471Z,10.01
2018-05-03T04:17:23.462Z,10.04
2018-05-03T04:18:23.453Z,9.99
2018-05-03T04:19:23.443Z,10.07
2018-05-03T04:20:23.435Z,10.01
2018-05-03T04:21:23.424Z,10.07
2018-05-03T04:22:23.423Z,9.92
2018-05-03T04:23:23.408Z,9.89
2018-05-03T04:24:23.398Z,9.98
2018-05-03T04:25:23.387Z,9.97
2018-05-03T04:26:23.378Z,9.82
2018-05-03T04:27:23.369Z,9.89
2018-05-03T04:28:23.362Z,9.87
2018-05-03T04:29:23.350Z,9.83
2018-05-03T04:30:23.341Z,9.86
2018-05-03T04:31:23.333Z,9.92
2018-05-03T04:32:23.322Z,9.87
2018-05-03T04:33:23.313Z,9.77
2018-05-03T04:34:23.303Z,9.79
2018-05-03T04:35:23.295Z,9.86
2018-05-03T04:36:23.285Z,9.86
2018-05-03T04:37:23.274Z,9.87
2018-05-03T04:38:23.265Z,9.86
2018-05-03T04:39:23.256Z,9.89
2018-05-03T04:40:23.247Z,9.87
2018-05-03T04:41:23.237Z,9.84
2018-05-03T04:42:23.227Z,9.92
2018-05-03T04:43:23.218Z,9.97
2018-05-03T04:44:23.209Z,9.89
2018-05-03T04:45:23.199Z,9.94
2018-05-03T04:46:23.191Z,9.86
2018-05-03T04:47:23.182Z,9.86
2018-05-03T04:48:23.171Z,9.94
2018-05-03T04:49:23.162Z,9.86
2018-05-03T04:50:23.154Z,9.91
2018-05-03T04:51:23.143Z,9.89
2018-05-03T04:52:23.134Z,9.92
2018-05-03T04:53:23.123Z,9.94
2018-05-03T04:54:23.114Z,9.94
2018-05-03T04:55:23.108Z,9.95
2018-05-03T04:56:23.096Z,9.94
2018-05-03T04:57:23.086Z,9.92
2018-05-03T04:58:23.077Z,9.95
2018-05-03T04:59:23.072Z,9.92
2018-05-03T05:00:23.059Z,10.01
2018-05-03T05:01:23.050Z,9.95
2018-05-03T05:02:23.040Z,9.91
2018-05-03T05:03:23.031Z,9.87
2018-05-03T05:04:23.022Z,9.91
2018-05-03T05:05:23.012Z,9.94
2018-05-03T05:06:23.003Z,9.87
2018-05-03T05:07:22.998Z,9.91
2018-05-03T05:08:22.987Z,9.89
2018-05-03T05:09:22.975Z,9.89
2018-05-03T05:10:22.977Z,9.92
2018-05-03T05:11:22.957Z,9.86
2018-05-03T05:12:22.948Z,9.91
2018-05-03T05:13:22.938Z,9.89
2018-05-03T05:14:22.929Z,9.89
2018-05-03T05:15:22.920Z,10.01
2018-05-03T05:16:22.915Z,9.87
2018-05-03T05:17:22.901Z,9.84
2018-05-03T05:18:22.892Z,9.83
2018-05-03T05:19:22.883Z,9.87
2018-05-03T05:20:22.876Z,9.92
2018-05-03T05:21:22.865Z,10.01
2018-05-03T05:22:22.856Z,9.89
2018-05-03T05:23:22.851Z,9.95
2018-05-03T05:24:22.838Z,10.02
2018-05-03T05:25:22.828Z,10.02
2018-05-03T05:26:22.820Z,10.01
2018-05-03T05:27:22.811Z,10.01
2018-05-03T05:28:22.803Z,10.01
2018-05-03T05:29:22.793Z,10.07
2018-05-03T05:30:22.784Z,10.04
2018-05-03T05:31:22.775Z,10.09
2018-05-03T05:32:22.767Z,10.16
2018-05-03T05:33:22.757Z,10.16
2018-05-03T05:34:22.750Z,10.16
2018-05-03T05:35:22.740Z,10.10
2018-05-03T05:36:22.737Z,10.17
2018-05-03T05:37:22.722Z,10.15
2018-05-03T05:38:22.726Z,10.13
2018-05-03T05:39:22.705Z,10.16
2018-05-03T05:40:22.697Z,10.12
2018-05-03T05:41:22.690Z,10.22
2018-05-03T05:42:22.685Z,10.19
2018-05-03T05:43:22.670Z,10.20
2018-05-03T05:44:22.673Z,10.33
2018-05-03T05:45:22.652Z,10.33
2018-05-03T05:46:22.643Z,10.41
2018-05-03T05:47:22.636Z,10.42
2018-05-03T05:48:22.646Z,10.44
2018-05-03T05:49:22.617Z,10.46
2018-05-03T05:50:22.609Z,10.42
2018-05-03T05:51:22.620Z,10.49
2018-05-03T05:52:22.594Z,10.56
2018-05-03T05:53:22.584Z,10.59
2018-05-03T05:54:22.576Z,10.56
2018-05-03T05:55:22.570Z,10.67
2018-05-03T05:56:22.559Z,10.64
2018-05-03T05:57:22.550Z,10.68
2018-05-03T05:58:22.542Z,10.69
2018-05-03T05:59:22.534Z,10.60
2018-05-03T06:00:22.526Z,10.61
2018-05-03T06:01:22.516Z,10.67
2018-05-03T06:02:22.510Z,10.60
2018-05-03T06:03:22.501Z,10.67
2018-05-03T06:04:22.523Z,10.67
2018-05-03T06:05:22.484Z,10.72
2018-05-03T06:06:22.479Z,10.68
2018-05-03T06:07:22.468Z,10.71
2018-05-03T06:08:22.470Z,10.72
2018-05-03T06:09:22.451Z,10.69
2018-05-03T06:10:22.504Z,10.69
2018-05-03T06:11:22.435Z,10.82
2018-05-03T06:12:22.440Z,10.79
2018-05-03T06:13:22.423Z,10.89
2018-05-03T06:14:22.413Z,10.84
2018-05-03T06:15:22.403Z,10.89
2018-05-03T06:16:22.395Z,10.87
2018-05-03T06:17:22.386Z,10.90
2018-05-03T06:18:22.378Z,10.84
2018-05-03T06:19:22.371Z,10.90
2018-05-03T06:20:22.363Z,10.87
2018-05-03T06:21:22.355Z,10.92
2018-05-03T06:22:22.347Z,11.00
2018-05-03T06:23:22.340Z,11.14
2018-05-03T06:24:22.331Z,11.14
2018-05-03T06:25:22.324Z,11.10
2018-05-03T06:26:22.315Z,11.11
2018-05-03T06:27:22.309Z,11.11
2018-05-03T06:28:22.300Z,11.14
2018-05-03T06:29:22.293Z,11.15
2018-05-03T06:30:22.286Z,11.18
2018-05-03T06:31:22.361Z,11.23
2018-05-03T06:32:22.269Z,11.41
2018-05-03T06:33:22.261Z,11.47
2018-05-03T06:34:22.253Z,11.59
2018-05-03T06:35:22.246Z,11.63
2018-05-03T06:36:22.238Z,11.69
2018-05-03T06:37:22.231Z,11.62
2018-05-03T06:38:22.223Z,11.62
2018-05-03T06:39:22.216Z,11.62
2018-05-03T06:40:22.210Z,11.68
2018-05-03T06:41:22.200Z,11.83
2018-05-03T06:42:22.197Z,11.97
2018-05-03T06:43:22.188Z,11.95
2018-05-03T06:44:22.180Z,11.99
2018-05-03T06:45:22.228Z,11.91
2018-05-03T06:46:22.165Z,12.00
2018-05-03T06:47:22.161Z,11.83
2018-05-03T06:48:22.151Z,11.73
2018-05-03T06:49:22.144Z,11.66
2018-05-03T06:50:22.137Z,11.57
2018-05-03T06:51:22.130Z,11.57
2018-05-03T06:52:22.123Z,11.57
2018-05-03T06:53:22.171Z,11.55
2018-05-03T06:54:22.111Z,11.63
2018-05-03T06:55:22.101Z,11.60
2018-05-03T06:56:22.094Z,11.83
2018-05-03T06:57:22.086Z,11.81
2018-05-03T06:58:22.080Z,11.86
2018-05-03T06:59:22.073Z,12.00
2018-05-03T07:00:22.066Z,12.03
2018-05-03T07:01:22.058Z,12.02
2018-05-03T07:02:22.052Z,12.10
2018-05-03T07:03:22.045Z,12.04
2018-05-03T07:04:22.150Z,12.00
2018-05-03T07:05:22.032Z,12.03
2018-05-03T07:06:22.025Z,12.15
2018-05-03T07:07:22.020Z,12.29
2018-05-03T07:08:22.014Z,12.17
2018-05-03T07:09:22.008Z,12.28
2018-05-03T07:10:22.002Z,12.18
2018-05-03T07:11:21.998Z,12.32
2018-05-03T07:12:21.997Z,12.49
2018-05-03T07:13:21.988Z,12.60
2018-05-03T07:14:21.986Z,12.72
2018-05-03T07:15:21.983Z,12.83
2018-05-03T07:16:22.061Z,12.90
2018-05-03T07:17:21.975Z,12.95
2018-05-03T07:18:21.974Z,13.05
2018-05-03T07:19:21.972Z,13.12
2018-05-03T07:20:21.974Z,13.31
2018-05-03T07:21:21.969Z,13.44
2018-05-03T07:22:21.966Z,13.68
2018-05-03T07:23:21.964Z,13.75
2018-05-03T07:24:21.963Z,13.83
2018-05-03T07:25:21.971Z,14.04
2018-05-03T07:26:21.961Z,14.11
2018-05-03T07:27:21.963Z,14.14
2018-05-03T07:28:21.960Z,14.25
2018-05-03T07:29:22.043Z,14.28
2018-05-03T07:30:21.959Z,14.32
2018-05-03T07:31:21.960Z,14.44
2018-05-03T07:32:21.961Z,14.51
2018-05-03T07:33:21.961Z,14.48
2018-05-03T07:34:21.961Z,14.45
2018-05-03T07:35:21.962Z,14.43
2018-05-03T07:36:21.964Z,14.41
2018-05-03T07:37:21.963Z,14.63
2018-05-03T07:38:21.971Z,14.51
2018-05-03T07:39:21.967Z,14.73
2018-05-03T07:40:21.969Z,14.70
2018-05-03T07:41:21.970Z,14.66
2018-05-03T07:42:21.976Z,14.66
2018-05-03T07:43:21.973Z,14.70
2018-05-03T07:44:21.974Z,14.78
2018-05-03T07:45:21.977Z,14.72
2018-05-03T07:46:21.979Z,14.45
2018-05-03T07:47:21.981Z,14.66
2018-05-03T07:48:21.984Z,14.85
2018-05-03T07:49:21.986Z,14.91
2018-05-03T07:50:21.993Z,15.09
2018-05-03T07:51:21.993Z,15.22
2018-05-03T07:52:22.000Z,15.59
2018-05-03T07:53:21.999Z,15.64
2018-05-03T07:54:22.003Z,15.61
2018-05-03T07:55:22.008Z,15.54
2018-05-03T07:56:22.012Z,15.52
2018-05-03T07:57:22.015Z,15.59
2018-05-03T07:58:22.030Z,15.73
2018-05-03T07:59:22.024Z,15.57
2018-05-03T08:00:22.029Z,15.43
2018-05-03T08:01:22.033Z,15.39
2018-05-03T08:02:22.036Z,15.40
2018-05-03T08:03:22.040Z,15.49
2018-05-03T08:04:22.044Z,15.58
2018-05-03T08:05:22.047Z,15.77
2018-05-03T08:06:22.051Z,16.00
2018-05-03T08:07:22.060Z,16.29
2018-05-03T08:08:22.061Z,16.13
2018-05-03T08:09:22.065Z,16.16
2018-05-03T08:10:22.070Z,16.12
2018-05-03T08:11:22.076Z,16.26
2018-05-03T08:12:22.081Z,16.41
2018-05-03T08:13:22.085Z,16.36
2018-05-03T08:14:22.090Z,16.24
2018-05-03T08:15:22.096Z,16.09
2018-05-03T08:16:22.101Z,15.62
2018-05-03T08:17:22.115Z,15.58
2018-05-03T08:18:22.111Z,15.54
2018-05-03T08:19:22.116Z,15.75
2018-05-03T08:20:22.121Z,16.02
2018-05-03T08:21:22.125Z,16.09
2018-05-03T08:22:22.136Z,16.54
2018-05-03T08:23:22.138Z,16.50
2018-05-03T08:24:22.143Z,16.38
2018-05-03T08:25:22.148Z,16.50
2018-05-03T08:26:22.154Z,16.33
2018-05-03T08:27:22.160Z,16.49
2018-05-03T08:28:22.167Z,16.39
2018-05-03T08:29:22.171Z,16.49
2018-05-03T08:30:22.178Z,16.69
2018-05-03T08:31:22.185Z,16.64
2018-05-03T08:32:22.192Z,16.23
2018-05-03T08:33:22.194Z,16.16
2018-05-03T08:34:22.199Z,15.94
2018-05-03T08:35:22.205Z,15.95
2018-05-03T08:36:22.210Z,16.10
2018-05-03T08:37:22.271Z,15.95
2018-05-03T08:38:22.219Z,15.67
2018-05-03T08:39:22.224Z,15.61
2018-05-03T08:40:22.229Z,15.82
2018-05-03T08:41:22.279Z,15.82
2018-05-03T08:42:22.238Z,15.83
2018-05-03T08:43:22.242Z,15.54
2018-05-03T08:44:22.246Z,15.76
2018-05-03T08:45:22.249Z,15.82
2018-05-03T08:46:22.260Z,15.95
2018-05-03T08:47:22.269Z,16.28
2018-05-03T08:48:22.265Z,16.60
2018-05-03T08:49:22.278Z,16.36
2018-05-03T08:50:22.274Z,16.09
2018-05-03T08:51:22.280Z,16.09
2018-05-03T08:52:22.285Z,16.26
2018-05-03T08:53:22.290Z,16.50
2018-05-03T08:54:22.295Z,16.64
2018-05-03T08:55:22.301Z,16.83
2018-05-03T08:56:22.311Z,16.90
2018-05-03T08:57:22.312Z,17.09
2018-05-03T08:58:22.321Z,17.41
2018-05-03T08:59:22.325Z,17.78
2018-05-03T09:00:22.333Z,17.76
2018-05-03T09:01:22.379Z,17.85
2018-05-03T09:02:22.350Z,17.68
2018-05-03T09:03:22.355Z,17.76
2018-05-03T09:04:22.364Z,17.76
2018-05-03T09:05:22.370Z,17.52
2018-05-03T09:06:22.379Z,17.46
2018-05-03T09:07:22.387Z,17.82
2018-05-03T09:08:22.396Z,18.22
2018-05-03T09:09:22.404Z,18.59
2018-05-03T09:10:22.413Z,18.70
2018-05-03T09:11:22.423Z,18.55
2018-05-03T09:12:22.432Z,18.78
2018-05-03T09:13:22.441Z,19.00
2018-05-03T09:14:22.453Z,19.00
2018-05-03T09:15:22.462Z,18.52
2018-05-03T09:16:22.472Z,18.41
2018-05-03T09:17:22.481Z,18.07
2018-05-03T09:18:22.492Z,17.74
2018-05-03T09:19:22.505Z,17.34
2018-05-03T09:20:22.512Z,17.31
2018-05-03T09:21:22.521Z,17.38
2018-05-03T09:22:22.574Z,17.74
2018-05-03T09:23:22.540Z,17.76
2018-05-03T09:24:22.550Z,17.94
2018-05-03T09:25:22.559Z,18.26
2018-05-03T09:26:22.570Z,18.44
2018-05-03T09:27:22.579Z,18.62
2018-05-03T09:28:22.589Z,18.78
2018-05-03T09:29:22.598Z,18.52
2018-05-03T09:30:22.609Z,18.40
2018-05-03T09:31:22.619Z,18.59
2018-05-03T09:32:22.629Z,18.92
2018-05-03T09:33:22.640Z,18.90
2018-05-03T09:34:22.653Z,18.78
2018-05-03T09:35:22.659Z,18.71
2018-05-03T09:36:22.668Z,18.71
2018-05-03T09:37:22.678Z,18.81
2018-05-03T09:38:22.689Z,19.24
2018-05-03T09:39:22.698Z,19.48
2018-05-03T09:40:22.709Z,19.67
2018-05-03T09:41:22.718Z,19.79
2018-05-03T09:42:22.844Z,19.66
2018-05-03T09:43:22.739Z,19.84
2018-05-03T09:44:22.759Z,19.89
2018-05-03T09:45:22.761Z,19.66
2018-05-03T09:46:22.770Z,19.19
2018-05-03T09:47:22.781Z,19.18
2018-05-03T09:48:22.789Z,19.16
2018-05-03T09:49:22.798Z,19.14
2018-05-03T09:50:22.808Z,19.30
2018-05-03T09:51:22.818Z,19.27
2018-05-03T09:52:22.918Z,18.98
2018-05-03T09:53:22.838Z,18.84
2018-05-03T09:54:22.847Z,18.53
2018-05-03T09:55:22.929Z,18.65
2018-05-03T09:56:22.867Z,18.37
2018-05-03T09:57:22.876Z,18.13
2018-05-03T09:58:22.884Z,18.10
2018-05-03T09:59:22.949Z,18.37
2018-05-03T10:00:22.903Z,18.41
2018-05-03T10:01:22.911Z,18.73
2018-05-03T10:02:22.926Z,18.89
2018-05-03T10:03:22.935Z,18.75
2018-05-03T10:04:22.941Z,18.88
2018-05-03T10:05:22.952Z,18.98
2018-05-03T10:06:22.960Z,18.88
2018-05-03T10:07:22.969Z,18.86
2018-05-03T10:08:22.979Z,18.95
2018-05-03T10:09:22.992Z,19.14
2018-05-03T10:10:22.998Z,19.44
2018-05-03T10:11:23.008Z,19.39
2018-05-03T10:12:23.018Z,19.09
2018-05-03T10:13:23.136Z,19.00
2018-05-03T10:14:23.044Z,19.24
2018-05-03T10:15:23.046Z,19.69
2018-05-03T10:16:23.056Z,19.34
2018-05-03T10:17:23.066Z,19.02
2018-05-03T10:18:23.074Z,19.19
2018-05-03T10:19:23.084Z,19.37
2018-05-03T10:20:23.095Z,19.26
2018-05-03T10:21:23.101Z,19.45
2018-05-03T10:22:23.110Z,19.47
2018-05-03T10:23:23.120Z,19.45
2018-05-03T10:24:23.128Z,19.52
2018-05-03T10:25:23.136Z,19.55
2018-05-03T10:26:23.145Z,19.24
2018-05-03T10:27:23.154Z,19.19
2018-05-03T10:28:23.162Z,18.78
2018-05-03T10:29:23.172Z,18.33
2018-05-03T10:30:23.179Z,18.22
2018-05-03T10:31:23.185Z,18.26
2018-05-03T10:32:23.195Z,18.40
2018-05-03T10:33:23.199Z,18.60
2018-05-03T10:34:23.210Z,18.52
2018-05-03T10:35:23.215Z,18.56
2018-05-03T10:36:23.262Z,18.55
2018-05-03T10:37:23.226Z,18.81
2018-05-03T10:38:23.235Z,19.09
2018-05-03T10:39:23.242Z,19.19
2018-05-03T10:40:23.250Z,19.21
2018-05-03T10:41:23.257Z,19.08
2018-05-03T10:42:23.264Z,19.15
2018-05-03T10:43:23.271Z,19.16
2018-05-03T10:44:23.279Z,19.09
2018-05-03T10:45:23.285Z,19.21
2018-05-03T10:46:23.293Z,19.41
2018-05-03T10:47:23.299Z,19.11
2018-05-03T10:48:23.308Z,19.24
2018-05-03T10:49:23.313Z,19.30
2018-05-03T10:50:23.321Z,19.37
2018-05-03T10:51:23.328Z,19.33
2018-05-03T10:52:23.340Z,19.55
2018-05-03T10:53:23.341Z,19.85
2018-05-03T10:54:23.349Z,20.28
2018-05-03T10:55:23.357Z,20.03
2018-05-03T10:56:23.366Z,19.95
2018-05-03T10:57:23.376Z,19.96
2018-05-03T10:58:23.382Z,19.67
2018-05-03T10:59:23.390Z,19.37
2018-05-03T11:00:23.398Z,19.04
2018-05-03T11:01:23.405Z,18.95
2018-05-03T11:02:23.412Z,19.02
2018-05-03T11:03:23.419Z,19.15
2018-05-03T11:04:23.427Z,19.16
2018-05-03T11:05:23.468Z,19.37
2018-05-03T11:06:23.447Z,19.51
2018-05-03T11:07:23.449Z,19.48
2018-05-03T11:08:23.456Z,19.49
2018-05-03T11:09:23.462Z,19.40
2018-05-03T11:10:23.469Z,19.09
2018-05-03T11:11:23.476Z,18.95
2018-05-03T11:12:23.484Z,19.21
2018-05-03T11:13:23.488Z,19.59
2018-05-03T11:14:23.496Z,19.91
2018-05-03T11:15:23.503Z,20.18
2018-05-03T11:16:23.512Z,20.32
2018-05-03T11:17:23.519Z,20.60
2018-05-03T11:18:23.528Z,20.62
2018-05-03T11:19:23.537Z,20.82
2018-05-03T11:20:23.552Z,21.06
2018-05-03T11:21:23.556Z,21.20
2018-05-03T11:22:23.565Z,21.18
2018-05-03T11:23:23.576Z,21.24
2018-05-03T11:24:23.590Z,21.21
2018-05-03T11:25:23.596Z,20.97
2018-05-03T11:26:23.607Z,20.70
2018-05-03T11:27:23.618Z,20.25
2018-05-03T11:28:23.628Z,19.88
2018-05-03T11:29:23.640Z,19.41
2018-05-03T11:30:23.646Z,19.22
2018-05-03T11:31:23.715Z,19.14
2018-05-03T11:32:23.664Z,19.37
2018-05-03T11:33:23.672Z,19.59
2018-05-03T11:34:23.680Z,19.69
2018-05-03T11:35:23.691Z,19.67
2018-05-03T11:36:23.696Z,19.66
2018-05-03T11:37:23.704Z,19.67
2018-05-03T11:38:23.710Z,19.69
2018-05-03T11:39:23.717Z,19.47
2018-05-03T11:40:23.725Z,19.39
2018-05-03T11:41:23.730Z,19.41
2018-05-03T11:42:23.737Z,19.48
2018-05-03T11:43:23.746Z,19.49
2018-05-03T11:44:23.751Z,19.49
2018-05-03T11:45:23.756Z,19.49
2018-05-03T11:46:23.765Z,19.63
2018-05-03T11:47:23.768Z,19.79
2018-05-03T11:48:23.775Z,20.16
2018-05-03T11:49:23.781Z,20.34
2018-05-03T11:50:23.791Z,20.51
2018-05-03T11:51:23.799Z,20.58
2018-05-03T11:52:23.803Z,20.52
2018-05-03T11:53:23.808Z,20.39
2018-05-03T11:54:23.815Z,20.24
2018-05-03T11:55:23.823Z,19.99
2018-05-03T11:56:23.831Z,19.67
2018-05-03T11:57:23.839Z,19.74
2018-05-03T11:58:23.843Z,19.49
2018-05-03T11:59:23.965Z,19.37
2018-05-03T12:00:23.859Z,19.51
2018-05-03T12:01:23.861Z,19.89
2018-05-03T12:02:23.900Z,20.03
2018-05-03T12:03:23.875Z,20.28
2018-05-03T12:04:23.882Z,20.63
2018-05-03T12:05:23.889Z,20.74
2018-05-03T12:06:23.896Z,20.87
2018-05-03T12:07:23.906Z,20.87
2018-05-03T12:08:23.911Z,20.59
2018-05-03T12:09:23.917Z,20.39
2018-05-03T12:10:23.924Z,20.47
2018-05-03T12:11:23.931Z,20.43
2018-05-03T12:12:23.939Z,20.43
2018-05-03T12:13:23.946Z,20.37
2018-05-03T12:14:23.956Z,20.56
2018-05-03T12:15:23.961Z,20.72
2018-05-03T12:16:23.968Z,20.80
2018-05-03T12:17:23.975Z,20.41
2018-05-03T12:18:23.982Z,20.07
2018-05-03T12:19:23.989Z,20.32
2018-05-03T12:20:23.996Z,20.40
2018-05-03T12:21:24.001Z,20.59
2018-05-03T12:22:24.009Z,20.81
2018-05-03T12:23:24.016Z,20.85
2018-05-03T12:24:24.076Z,21.03
2018-05-03T12:25:24.028Z,21.15
2018-05-03T12:26:24.035Z,21.36
2018-05-03T12:27:24.047Z,21.48
2018-05-03T12:28:24.051Z,21.82
2018-05-03T12:29:24.058Z,21.92
2018-05-03T12:30:24.066Z,21.69
2018-05-03T12:31:24.074Z,21.93
2018-05-03T12:32:24.083Z,22.06
2018-05-03T12:33:24.091Z,22.23
2018-05-03T12:34:24.098Z,22.43
2018-05-03T12:35:28.208Z,22.66
2018-05-03T12:36:24.118Z,22.73
2018-05-03T12:37:24.124Z,22.85
2018-05-03T12:38:24.133Z,23.27
2018-05-03T12:39:24.143Z,23.27
2018-05-03T12:40:24.153Z,23.40
2018-05-03T12:41:24.161Z,23.23
2018-05-03T12:42:24.171Z,23.23
2018-05-03T12:43:24.181Z,23.13
2018-05-03T12:44:24.190Z,22.85
2018-05-03T12:45:24.200Z,22.80
2018-05-03T12:46:24.208Z,22.69
2018-05-03T12:47:24.218Z,22.65
2018-05-03T12:49:24.236Z,21.69
2018-05-03T12:50:24.244Z,21.32
2018-05-03T12:51:24.255Z,21.17
2018-05-03T12:52:24.261Z,21.25
2018-05-03T12:53:24.268Z,21.69
2018-05-03T12:54:24.276Z,22.07
2018-05-03T12:55:24.283Z,22.26